Time;durP1;ratioP1;P1;durP2;ratioP2;P2;SDS_P1;SDS_P2;PMS_P1;PMS_P2;Temp;Humidity;BMP_temperature;BMP_pressure;BME280_temperature;BME280_humidity;BME280_pressure;Samples;Min_cycle;Max_cycle;Signal;HPM_P1;HPM_P2
2022/04/21 00:00:48;;;;;;;10.88;7.58;;;;;;;7.88;66.50;100797.05;1730895;82;28302;-61
2022/04/21 00:03:15;;;;;;;11.03;7.03;;;;;;;7.86;66.91;100794.97;1731048;82;25867;-61
2022/04/21 00:05:42;;;;;;;10.72;7.97;;;;;;;7.84;67.05;100801.30;1731124;81;25728;-61
2022/04/21 00:08:09;;;;;;;15.28;7.55;;;;;;;7.87;67.61;100802.03;1730983;82;25983;-60
2022/04/21 00:10:36;;;;;;;17.15;7.15;;;;;;;7.89;68.13;100798.77;1731025;81;25812;-61
2022/04/21 00:13:03;;;;;;;12.30;7.97;;;;;;;7.88;68.69;100807.77;1730821;82;27488;-61
2022/04/21 00:15:30;;;;;;;11.68;7.58;;;;;;;7.83;68.49;100814.34;1730999;82;25936;-61
2022/04/21 00:17:59;;;;;;;10.10;6.47;;;;;;;7.84;68.50;100816.02;1730932;81;25824;-61
2022/04/21 00:20:26;;;;;;;12.10;7.37;;;;;;;7.86;68.62;100811.91;1730976;82;25855;-61
2022/04/21 00:25:38;;;;;;;12.20;8.05;;;;;;;7.97;68.63;100813.28;1718043;83;27472;-61
2022/04/21 00:28:06;;;;;;;12.80;7.10;;;;;;;8.00;68.74;100813.53;1718281;83;25758;-61
2022/04/21 00:30:33;;;;;;;11.97;6.87;;;;;;;8.04;68.83;100808.78;1718266;83;25698;-61
2022/04/21 00:33:00;;;;;;;13.85;7.40;;;;;;;8.10;68.89;100812.31;1718184;83;25791;-61
2022/04/21 00:35:27;;;;;;;17.45;7.35;;;;;;;8.11;68.55;100820.22;1718486;83;25455;-62
2022/04/21 00:37:57;;;;;;;13.35;7.97;;;;;;;8.14;68.64;100827.20;1718355;83;27504;-61
2022/04/21 00:40:27;;;;;;;10.58;6.67;;;;;;;8.13;68.53;100825.48;1718260;83;25503;-61
2022/04/21 00:42:56;;;;;;;10.78;8.35;;;;;;;8.12;68.35;100817.92;1718174;83;25775;-61
2022/04/21 00:45:23;;;;;;;11.60;7.28;;;;;;;8.18;68.86;100819.77;1718183;83;25923;-61
2022/04/21 00:47:53;;;;;;;11.78;6.85;;;;;;;8.16;68.76;100806.47;1718444;83;25447;-61
2022/04/21 00:50:24;;;;;;;10.98;6.40;;;;;;;8.15;68.59;100811.49;1726404;82;27081;-61
2022/04/21 00:52:54;;;;;;;9.75;5.95;;;;;;;8.13;68.30;100809.41;1730910;82;25469;-61
2022/04/21 00:55:22;;;;;;;8.48;5.65;;;;;;;8.12;68.45;100807.70;1730941;81;25455;-61
2022/04/21 00:57:52;;;;;;;7.80;5.55;;;;;;;8.08;68.07;100819.14;1719488;82;25980;-61
2022/04/21 01:00:20;;;;;;;12.25;5.80;;;;;;;8.09;67.84;100822.20;1740902;82;25710;-61
2022/04/21 01:02:46;;;;;;;11.25;6.58;;;;;;;8.06;67.83;100822.42;1705269;84;27485;-61
2022/04/21 01:05:29;;;;;;;10.48;6.30;;;;;;;8.01;67.56;100821.94;1740700;82;26456;-61
2022/04/21 01:07:59;;;;;;;10.00;6.45;;;;;;;7.99;67.47;100819.35;1705127;84;25707;-61
2022/04/21 01:10:29;;;;;;;10.65;6.20;;;;;;;7.96;67.62;100821.42;1705012;84;25938;-61
2022/04/21 01:12:58;;;;;;;10.28;6.65;;;;;;;7.91;67.79;100823.11;1705212;84;25525;-61
2022/04/21 01:15:25;;;;;;;11.30;6.45;;;;;;;7.79;67.76;100826.25;1741113;81;28195;-61
2022/04/21 01:17:54;;;;;;;7.90;5.95;;;;;;;7.70;67.86;100822.09;1705165;84;25776;-62
2022/04/21 01:20:22;;;;;;;12.73;6.58;;;;;;;7.62;68.28;100822.16;1741036;82;25736;-61
2022/04/21 01:22:51;;;;;;;7.83;5.65;;;;;;;7.51;68.14;100818.96;1698498;83;26170;-61
2022/04/21 01:25:20;;;;;;;8.35;6.28;;;;;;;7.48;68.73;100817.00;1740855;80;25760;-61
2022/04/21 01:27:57;;;;;;;10.08;6.83;;;;;;;7.43;69.09;100812.49;1725268;82;27448;-62
2022/04/21 01:30:24;;;;;;;13.20;6.90;;;;;;;7.38;69.15;100814.17;1708010;83;25793;-61
2022/04/21 01:32:51;;;;;;;11.05;6.05;;;;;;;7.34;68.95;100813.55;1708310;83;25516;-61
2022/04/21 01:35:18;;;;;;;9.93;6.65;;;;;;;7.32;69.54;100811.93;1707782;82;25805;-61
2022/04/21 01:43:16;;;;;;;10.60;6.15;;;;;;;7.24;69.66;100817.00;1708226;83;25755;-61
2022/04/21 01:45:43;;;;;;;10.63;6.00;;;;;;;7.22;69.68;100814.45;1707895;82;25457;-61
2022/04/21 01:48:13;;;;;;;11.35;6.60;;;;;;;7.22;69.93;100813.61;1707821;82;25713;-61
2022/04/21 01:50:40;;;;;;;10.23;6.15;;;;;;;7.19;70.43;100811.52;1721450;81;25696;-62
2022/04/21 01:53:07;;;;;;;13.48;6.60;;;;;;;7.14;70.15;100805.64;1724522;83;27512;-62
2022/04/21 01:55:34;;;;;;;8.48;5.50;;;;;;;7.10;70.69;100805.51;1726872;80;25431;-61
2022/04/21 01:58:02;;;;;;;12.18;6.47;;;;;;;7.06;70.45;100801.34;1714763;82;25682;-61
2022/04/21 02:00:29;;;;;;;6.95;5.03;;;;;;;7.04;70.53;100788.55;1708982;82;25849;-61
2022/04/21 02:02:56;;;;;;;9.15;6.50;;;;;;;7.03;70.79;100791.73;1730186;82;25420;-62
2022/04/21 02:05:23;;;;;;;12.60;6.47;;;;;;;7.03;70.34;100785.03;1729986;82;28292;-61
2022/04/21 02:07:50;;;;;;;9.50;6.53;;;;;;;7.06;70.19;100790.64;1729958;81;25769;-61
2022/04/21 02:10:21;;;;;;;11.35;6.08;;;;;;;7.14;70.12;100798.11;1730179;82;25759;-61
2022/04/21 02:12:49;;;;;;;7.58;5.78;;;;;;;7.20;69.88;100799.86;1730071;82;25789;-61
2022/04/21 02:15:19;;;;;;;8.23;5.25;;;;;;;7.22;69.83;100790.86;1730481;81;25701;-61
2022/04/21 02:17:47;;;;;;;7.55;5.65;;;;;;;7.22;69.68;100790.37;1729926;81;27397;-61
2022/04/21 02:20:17;;;;;;;12.90;6.85;;;;;;;7.15;69.44;100781.09;1730115;82;25705;-61
2022/04/21 02:22:45;;;;;;;13.45;7.20;;;;;;;7.06;69.68;100785.28;1733708;81;25918;-61
2022/04/21 02:25:15;;;;;;;8.08;5.50;;;;;;;7.04;69.72;100780.06;1705127;84;25784;-61
2022/04/21 02:27:46;;;;;;;11.33;6.45;;;;;;;7.03;69.53;100772.16;1740938;82;25741;-61
2022/04/21 02:30:16;;;;;;;11.38;7.03;;;;;;;7.04;69.86;100774.71;1705219;84;28129;-61
2022/04/21 02:32:44;;;;;;;9.43;6.15;;;;;;;7.00;70.20;100773.22;1740900;81;25772;-61
2022/04/21 02:35:13;;;;;;;10.08;6.53;;;;;;;6.97;69.65;100766.77;1705304;84;25635;-61
2022/04/21 02:37:45;;;;;;;6.95;5.30;;;;;;;6.97;69.62;100774.80;1741020;81;25705;-61
2022/04/21 02:40:14;;;;;;;10.25;6.12;;;;;;;6.95;69.90;100767.36;1705264;84;25793;-61
2022/04/21 02:42:42;;;;;;;9.65;6.50;;;;;;;6.95;69.60;100759.84;1740925;81;27550;-61
2022/04/21 02:45:11;;;;;;;7.67;5.50;;;;;;;6.97;69.58;100761.42;1705007;84;26282;-61
2022/04/21 02:47:42;;;;;;;8.60;6.00;;;;;;;7.00;69.28;100761.68;1741080;82;25748;-61
2022/04/21 02:50:15;;;;;;;11.63;5.75;;;;;;;7.02;69.43;100757.08;1704815;82;26684;-61
2022/04/21 02:52:43;;;;;;;6.25;5.35;;;;;;;7.06;69.29;100750.52;1684116;84;25482;-61
2022/04/21 02:57:58;;;;;;;11.35;5.25;;;;;;;7.13;68.63;100745.06;1709946;83;26173;-61
2022/04/21 03:00:26;;;;;;;6.15;4.70;;;;;;;7.16;68.39;100746.19;1703077;83;25607;-61
2022/04/21 03:02:53;;;;;;;8.13;4.87;;;;;;;7.19;68.15;100740.62;1722098;82;25792;-61
2022/04/21 03:05:20;;;;;;;7.37;5.03;;;;;;;7.21;67.86;100736.48;1722178;83;25784;-61
2022/04/21 03:07:47;;;;;;;10.08;5.90;;;;;;;7.23;67.59;100737.23;1722675;82;27383;-61
2022/04/21 03:10:15;;;;;;;11.63;5.65;;;;;;;7.23;67.49;100745.72;1722205;82;25827;-61
2022/04/21 03:12:41;;;;;;;14.13;5.58;;;;;;;7.25;67.44;100746.47;1722400;83;25760;-61
2022/04/21 03:15:11;;;;;;;10.30;5.53;;;;;;;7.25;67.06;100742.45;1722560;83;25709;-60
2022/04/21 03:17:38;;;;;;;9.13;5.70;;;;;;;7.23;66.89;100747.93;1722259;82;25672;-61
2022/04/21 03:20:07;;;;;;;10.25;6.28;;;;;;;7.19;67.03;100741.09;1722246;83;27467;-61
2022/04/21 03:25:20;;;;;;;7.22;5.72;;;;;;;7.15;66.95;100744.98;1740725;82;25645;-59
2022/04/21 03:27:50;;;;;;;11.40;6.08;;;;;;;7.14;66.91;100746.78;1706580;82;25768;-61
2022/04/21 03:30:16;;;;;;;10.35;5.78;;;;;;;7.15;66.76;100735.61;1776756;80;25711;-60
2022/04/21 03:32:42;;;;;;;10.15;6.05;;;;;;;7.19;67.02;100739.28;1777079;80;27631;-61
2022/04/21 03:35:09;;;;;;;16.32;7.37;;;;;;;7.20;67.08;100745.47;1776980;80;26208;-61
2022/04/21 03:37:36;;;;;;;8.83;5.60;;;;;;;7.18;66.71;100744.73;1776881;80;25818;-60
2022/04/21 03:40:05;;;;;;;10.93;7.05;;;;;;;7.17;66.91;100745.23;1776787;80;25876;-60
2022/04/21 03:42:32;;;;;;;7.75;5.65;;;;;;;7.22;66.76;100744.88;1777062;80;25501;-61
2022/04/21 03:44:59;;;;;;;9.15;6.28;;;;;;;7.26;66.94;100736.97;1776956;80;27552;-60
2022/04/21 03:47:27;;;;;;;10.03;6.17;;;;;;;7.33;67.16;100741.39;1777040;80;25727;-61
2022/04/21 03:49:53;;;;;;;13.32;6.15;;;;;;;7.40;66.94;100735.94;1759759;80;25502;-61
2022/04/21 03:52:20;;;;;;;10.53;7.15;;;;;;;7.45;67.29;100744.95;1705212;83;25776;-60
2022/04/21 03:54:47;;;;;;;12.40;6.50;;;;;;;7.54;67.14;100743.41;1740830;82;27265;-60
2022/04/21 03:57:14;;;;;;;11.40;6.78;;;;;;;7.58;67.15;100747.55;1706467;83;26786;-60
2022/04/21 03:59:41;;;;;;;11.63;6.67;;;;;;;7.62;67.15;100746.35;1748761;82;25736;-61
2022/04/21 04:02:08;;;;;;;11.25;7.20;;;;;;;7.60;66.81;100757.19;1748872;82;25725;-60
2022/04/21 04:04:37;;;;;;;14.63;9.33;;;;;;;7.59;66.67;100755.48;1748826;80;25719;-60
2022/04/21 04:12:39;;;;;;;9.35;6.53;;;;;;;7.56;66.79;100758.87;1748885;82;25778;-61
2022/04/21 04:15:08;;;;;;;13.13;7.28;;;;;;;7.56;66.58;100758.87;1749013;80;25826;-61
2022/04/21 04:17:35;;;;;;;10.68;7.35;;;;;;;7.50;66.69;100765.05;1748968;82;25839;-60
2022/04/21 04:20:04;;;;;;;11.30;6.97;;;;;;;7.51;66.67;100768.09;1719354;82;25558;-61
2022/04/21 04:22:42;;;;;;;7.85;6.40;;;;;;;7.53;66.60;100765.30;1748840;82;27470;-61
2022/04/21 04:25:10;;;;;;;9.48;6.60;;;;;;;7.52;66.42;100764.95;1749249;82;25983;-61
2022/04/21 04:27:38;;;;;;;9.10;6.35;;;;;;;7.55;66.46;100766.54;1748980;82;26123;-60
2022/04/21 04:30:08;;;;;;;9.15;6.90;;;;;;;7.56;66.36;100767.75;1749295;81;26674;-60
2022/04/21 04:32:36;;;;;;;15.60;6.47;;;;;;;7.58;66.21;100775.66;1748770;82;25827;-60
2022/04/21 04:35:05;;;;;;;9.53;6.33;;;;;;;7.62;66.29;100777.14;1749118;82;27495;-61
2022/04/21 04:37:31;;;;;;;12.25;6.70;;;;;;;7.63;66.23;100780.19;1748679;82;25471;-61
2022/04/21 04:39:59;;;;;;;9.45;5.28;;;;;;;7.67;66.19;100776.30;1748810;82;25756;-61
2022/04/21 04:42:28;;;;;;;10.08;6.92;;;;;;;7.66;65.95;100778.63;1748806;82;25789;-61
2022/04/21 04:47:41;;;;;;;10.15;6.60;;;;;;;7.62;65.90;100779.82;1749039;82;27480;-61
2022/04/21 04:50:09;;;;;;;8.13;5.45;;;;;;;7.68;65.89;100788.25;1737959;81;25785;-61
2022/04/21 04:52:37;;;;;;;12.33;6.55;;;;;;;7.73;65.76;100797.27;1729894;81;25772;-61
2022/04/21 04:55:07;;;;;;;11.63;7.03;;;;;;;7.80;65.55;100792.27;1729861;82;25787;-61
2022/04/21 04:57:34;;;;;;;10.32;7.08;;;;;;;7.81;65.45;100791.30;1733233;81;25729;-61
2022/04/21 05:00:03;;;;;;;17.02;7.62;;;;;;;7.89;65.26;100791.56;1754156;80;28288;-60
2022/04/21 05:02:30;;;;;;;15.50;7.35;;;;;;;7.96;65.04;100791.48;1753996;81;25795;-61
2022/04/21 05:04:57;;;;;;;13.80;8.10;;;;;;;7.95;65.17;100792.45;1754061;81;25823;-61
2022/04/21 05:07:24;;;;;;;18.50;8.35;;;;;;;7.97;64.90;100792.32;1754355;80;25630;-61
2022/04/21 05:09:51;;;;;;;13.15;8.05;;;;;;;8.04;64.84;100788.19;1754073;81;25723;-61
2022/04/21 05:12:18;;;;;;;17.27;8.10;;;;;;;8.15;64.71;100799.44;1754201;80;27486;-61
2022/04/21 05:14:46;;;;;;;14.47;8.35;;;;;;;8.21;64.33;100784.20;1754351;81;25745;-61
2022/04/21 05:17:13;;;;;;;10.08;7.30;;;;;;;8.25;63.76;100788.33;1754157;80;25731;-61
2022/04/21 05:19:41;;;;;;;13.90;8.08;;;;;;;8.31;63.20;100787.00;1754606;81;25789;-61
2022/04/21 05:22:13;;;;;;;13.68;8.18;;;;;;;8.34;63.32;100789.45;1754341;81;25963;-61
2022/04/21 05:24:45;;;;;;;11.20;7.40;;;;;;;8.37;63.02;100794.58;1718385;83;28171;-61
2022/04/21 05:27:14;;;;;;;11.93;6.92;;;;;;;8.34;62.62;100797.98;1718099;83;25831;-61
2022/04/21 05:32:32;;;;;;;11.40;7.90;;;;;;;8.46;62.30;100796.53;1744429;82;25802;-61
2022/04/21 05:35:00;;;;;;;14.73;8.05;;;;;;;8.48;61.92;100792.41;1729888;82;25824;-61
2022/04/21 05:37:29;;;;;;;14.47;7.97;;;;;;;8.56;61.96;100794.49;1729856;82;27523;-61
2022/04/21 05:39:57;;;;;;;14.78;8.58;;;;;;;8.66;61.50;100791.41;1748505;82;25809;-61
2022/04/21 05:42:25;;;;;;;13.48;8.10;;;;;;;8.80;61.20;100797.50;1748694;82;25676;-61
2022/04/21 05:44:54;;;;;;;17.55;7.90;;;;;;;8.90;60.82;100800.65;1748435;82;25794;-61
2022/04/21 05:47:22;;;;;;;17.52;7.90;;;;;;;8.96;60.56;100797.13;1748733;82;25779;-61
2022/04/21 05:49:50;;;;;;;16.07;8.73;;;;;;;9.09;59.97;100792.44;1735208;82;27476;-61
2022/04/21 05:52:21;;;;;;;19.48;8.03;;;;;;;9.12;59.75;100784.62;1718468;83;25881;-62
2022/04/21 05:54:49;;;;;;;20.52;8.38;;;;;;;9.19;59.69;100785.81;1718281;82;25752;-61
2022/04/21 05:57:16;;;;;;;13.53;8.28;;;;;;;9.27;58.77;100779.81;1718565;83;25893;-61
2022/04/21 05:59:47;;;;;;;15.90;8.20;;;;;;;9.29;58.87;100783.23;1705932;83;25732;-62
2022/04/21 06:02:13;;;;;;;15.18;8.68;;;;;;;9.35;59.16;100786.27;1704940;83;27604;-62
2022/04/21 06:04:39;;;;;;;11.50;7.92;;;;;;;9.36;58.39;100786.63;1705055;83;26191;-62
2022/04/21 06:07:06;;;;;;;14.35;7.45;;;;;;;9.43;57.32;100782.92;1741070;81;25656;-62
2022/04/21 06:09:33;;;;;;;13.50;7.50;;;;;;;9.51;57.56;100784.47;1704857;83;25802;-63
2022/04/21 06:12:01;;;;;;;14.40;8.53;;;;;;;9.58;56.26;100785.32;1740923;82;25498;-60
2022/04/21 06:14:27;;;;;;;13.95;7.45;;;;;;;9.53;56.21;100787.89;1705007;83;27326;-62
2022/04/21 06:16:57;;;;;;;16.00;7.60;;;;;;;9.58;56.16;100779.95;1740381;81;25860;-62
2022/04/21 06:19:24;;;;;;;16.32;8.00;;;;;;;9.67;56.39;100784.54;1705089;84;25741;-61
2022/04/21 06:21:51;;;;;;;14.33;7.97;;;;;;;9.78;54.87;100787.14;1740779;82;25833;-62
2022/04/21 06:24:17;;;;;;;20.77;8.68;;;;;;;9.76;55.19;100778.86;1703677;84;26005;-61
2022/04/21 06:26:44;;;;;;;22.30;8.88;;;;;;;9.84;55.49;100786.64;1739376;82;26717;-61
2022/04/21 06:29:11;;;;;;;16.45;7.97;;;;;;;9.87;54.67;100788.21;1738553;82;25806;-60
2022/04/21 06:31:38;;;;;;;20.95;8.05;;;;;;;9.90;54.44;100790.64;1739650;82;25668;-61
2022/04/21 06:34:05;;;;;;;17.67;8.10;;;;;;;10.00;54.71;100786.16;1739103;82;25792;-61
2022/04/21 06:36:33;;;;;;;15.80;8.18;;;;;;;10.09;53.75;100791.72;1739292;82;26130;-61
2022/04/21 06:39:01;;;;;;;19.15;8.33;;;;;;;10.13;53.43;100786.45;1739166;82;28558;-62
2022/04/21 06:41:29;;;;;;;13.88;8.30;;;;;;;10.12;52.96;100788.78;1739230;82;25719;-62
2022/04/21 06:49:26;;;;;;;16.00;8.55;;;;;;;10.44;52.74;100783.82;1739781;82;25772;-61
2022/04/21 06:51:52;;;;;;;16.70;8.70;;;;;;;10.52;51.55;100790.72;1705119;84;28725;-62
2022/04/21 06:54:19;;;;;;;28.00;9.80;;;;;;;10.53;50.46;100783.01;1740683;81;25790;-62
2022/04/21 06:56:48;;;;;;;22.98;9.13;;;;;;;10.62;50.97;100786.20;1705258;83;25800;-62
2022/04/21 06:59:18;;;;;;;19.10;9.40;;;;;;;10.78;51.23;100786.20;1746434;81;26449;-62
2022/04/21 07:01:48;;;;;;;17.35;8.75;;;;;;;10.96;50.11;100773.78;1754383;81;25683;-62
2022/04/21 07:04:15;;;;;;;15.60;8.25;;;;;;;11.04;50.11;100777.61;1754024;80;27462;-62
2022/04/21 07:06:42;;;;;;;17.48;9.50;;;;;;;11.15;50.59;100782.87;1754115;81;25800;-63
2022/04/21 07:09:09;;;;;;;20.08;9.68;;;;;;;11.32;50.17;100771.89;1754091;81;25660;-62
2022/04/21 07:11:38;;;;;;;16.75;8.93;;;;;;;11.43;48.88;100777.15;1753726;81;25805;-62
2022/04/21 07:14:05;;;;;;;20.90;9.68;;;;;;;11.50;49.40;100777.44;1754063;81;25703;-62
2022/04/21 07:16:33;;;;;;;20.92;10.35;;;;;;;11.63;49.38;100770.89;1753933;80;27470;-62
2022/04/21 07:19:00;;;;;;;20.25;12.60;;;;;;;11.75;47.02;100773.80;1754138;81;25777;-62
2022/04/21 07:21:26;;;;;;;17.75;9.98;;;;;;;11.75;46.55;100771.94;1753962;81;25711;-62
2022/04/21 07:23:53;;;;;;;19.48;10.38;;;;;;;11.87;47.17;100772.66;1754178;81;25818;-62
2022/04/21 07:26:20;;;;;;;17.30;10.35;;;;;;;11.97;46.09;100768.61;1754318;81;26131;-62
2022/04/21 07:28:47;;;;;;;18.42;10.03;;;;;;;11.95;45.03;100766.52;1754143;81;27461;-62
2022/04/21 07:31:15;;;;;;;17.95;9.58;;;;;;;11.97;45.17;100767.27;1754182;81;25723;-63
2022/04/21 07:33:42;;;;;;;17.60;10.08;;;;;;;12.08;45.26;100762.19;1718037;83;25772;-62
2022/04/21 07:36:09;;;;;;;20.17;9.93;;;;;;;12.25;45.22;100760.58;1700217;84;26421;-62
2022/04/21 07:38:36;;;;;;;17.98;9.85;;;;;;;12.26;43.63;100755.55;1700319;84;25749;-62
2022/04/21 07:41:04;;;;;;;16.80;9.65;;;;;;;12.43;44.79;100757.94;1700260;84;27737;-62
2022/04/21 07:43:33;;;;;;;23.42;10.32;;;;;;;12.49;43.65;100760.55;1700371;84;25473;-62
2022/04/21 07:46:00;;;;;;;21.40;9.78;;;;;;;12.58;43.32;100760.17;1700201;84;25647;-61
2022/04/21 07:49:44;;;;;;;15.20;9.43;;;;;;;12.62;43.68;100752.10;1700273;84;25926;-63
2022/04/21 07:50:56;;;;;;;18.62;10.08;;;;;;;12.77;43.09;100749.27;1696466;84;25924;-61
2022/04/21 07:53:24;;;;;;;22.67;9.88;;;;;;;12.86;42.11;100742.61;1700229;84;28300;-62
2022/04/21 07:55:51;;;;;;;17.67;10.50;;;;;;;12.93;43.28;100739.13;1700067;84;25719;-62
2022/04/21 07:58:19;;;;;;;21.85;10.28;;;;;;;13.09;43.30;100741.16;1699570;84;25492;-62
2022/04/21 08:00:46;;;;;;;20.12;10.48;;;;;;;13.25;43.20;100736.91;1746594;82;26444;-62
2022/04/21 08:03:18;;;;;;;21.33;10.28;;;;;;;13.36;42.52;100736.68;1746533;82;27251;-62
2022/04/21 08:05:42;;;;;;;20.27;10.25;;;;;;;13.45;42.53;100733.56;1745955;80;27547;-62
2022/04/21 08:08:11;;;;;;;23.52;10.78;;;;;;;13.38;41.65;100736.52;1746494;82;25728;-63
2022/04/21 08:10:37;;;;;;;17.80;9.78;;;;;;;13.44;41.28;100732.73;1746583;82;25724;-62
2022/04/21 08:13:04;;;;;;;19.70;9.95;;;;;;;13.48;41.71;100731.91;1746576;82;25794;-62
2022/04/21 08:15:35;;;;;;;17.60;10.80;;;;;;;13.54;41.19;100724.52;1746855;80;25776;-62
2022/04/21 08:18:05;;;;;;;23.92;10.95;;;;;;;13.58;40.26;100725.08;1746511;82;28264;-62
2022/04/21 08:20:34;;;;;;;15.83;10.55;;;;;;;13.63;41.15;100728.66;1746507;82;25805;-61
2022/04/21 08:23:03;;;;;;;23.15;10.98;;;;;;;13.72;40.74;100723.15;1732629;82;25791;-62
2022/04/21 08:33:46;;;;;;;12.33;8.25;;;;;;;14.32;38.87;100711.16;1714795;83;25842;-61
2022/04/21 08:36:13;;;;;;;10.65;7.58;;;;;;;14.51;38.26;100720.38;1715401;82;25788;-62
2022/04/21 08:38:40;;;;;;;11.12;7.22;;;;;;;14.55;36.32;100708.19;1715187;82;25751;-62
2022/04/21 08:41:11;;;;;;;13.32;6.87;;;;;;;14.40;35.58;100707.95;1715170;83;25283;-62
2022/04/21 08:43:41;;;;;;;14.90;7.33;;;;;;;14.49;35.65;100699.87;1715533;82;28147;-62
2022/04/21 08:46:10;;;;;;;14.47;7.22;;;;;;;14.56;35.14;100719.88;1715047;83;25817;-61
2022/04/21 08:48:40;;;;;;;14.58;7.33;;;;;;;14.62;34.97;100719.22;1715381;82;25771;-61
2022/04/21 08:51:09;;;;;;;10.20;6.42;;;;;;;14.81;34.61;100711.34;1727658;83;26472;-61
2022/04/21 08:53:38;;;;;;;15.20;6.20;;;;;;;14.89;34.26;100709.66;1727668;81;25784;-61
2022/04/21 08:56:06;;;;;;;10.38;5.80;;;;;;;15.17;35.00;100704.28;1727941;82;27415;-61
2022/04/21 08:58:33;;;;;;;10.88;6.33;;;;;;;15.48;34.04;100704.12;1737234;81;25722;-61
2022/04/21 09:00:59;;;;;;;13.60;6.08;;;;;;;15.69;32.37;100702.23;1705105;84;25806;-61
2022/04/21 09:03:26;;;;;;;9.65;5.40;;;;;;;15.59;31.91;100718.69;1740963;81;25848;-61
2022/04/21 09:05:53;;;;;;;11.25;5.60;;;;;;;15.63;31.89;100706.50;1705081;84;25703;-62
2022/04/21 09:08:28;;;;;;;13.70;5.60;;;;;;;15.71;32.18;100698.84;1741013;81;27472;-61
2022/04/21 09:11:07;;;;;;;8.03;5.15;;;;;;;15.84;31.33;100707.00;1705508;83;26427;-62
2022/04/21 09:13:39;;;;;;;12.73;6.03;;;;;;;15.93;31.30;100698.66;1704429;84;25760;-60
2022/04/21 09:16:09;;;;;;;11.00;5.80;;;;;;;16.11;31.60;100688.96;1705369;84;26584;-61
2022/04/21 09:18:45;;;;;;;10.32;5.47;;;;;;;16.31;30.51;100693.12;1740877;82;25811;-61
2022/04/21 09:21:15;;;;;;;10.08;5.35;;;;;;;16.53;30.52;100686.06;1740813;81;27510;-61
2022/04/21 09:23:44;;;;;;;9.70;6.40;;;;;;;16.55;30.09;100690.28;1690638;84;25777;-61
2022/04/21 09:26:15;;;;;;;7.60;5.60;;;;;;;16.49;30.40;100687.45;1741129;80;25485;-61
2022/04/21 09:28:42;;;;;;;7.58;5.08;;;;;;;16.61;30.14;100693.33;1740621;80;25780;-61
2022/04/21 09:31:10;;;;;;;8.00;5.03;;;;;;;16.53;29.95;100691.49;1741010;80;25795;-61
2022/04/21 09:33:44;;;;;;;9.10;5.42;;;;;;;16.34;28.62;100687.34;1741192;82;27648;-61
2022/04/21 09:36:12;;;;;;;7.70;3.95;;;;;;;16.28;28.78;100691.09;1746854;80;25645;-61
2022/04/21 09:38:39;;;;;;;11.40;4.72;;;;;;;16.35;28.95;100684.45;1777185;80;25752;-61
2022/04/21 09:41:12;;;;;;;8.03;4.65;;;;;;;16.56;30.05;100692.50;1777429;80;25726;-61
2022/04/21 09:43:42;;;;;;;11.43;5.55;;;;;;;16.63;28.14;100688.58;1772649;80;25500;-61
2022/04/21 09:46:17;;;;;;;8.35;4.20;;;;;;;16.49;28.27;100691.00;1776959;80;27710;-61
2022/04/21 09:48:46;;;;;;;5.80;4.28;;;;;;;16.40;27.91;100685.28;1777278;80;26094;-60
2022/04/21 09:51:21;;;;;;;8.35;4.67;;;;;;;16.50;27.33;100702.20;1741185;81;25711;-60
2022/04/21 09:53:57;;;;;;;10.80;4.45;;;;;;;16.88;27.48;100683.81;1705144;83;25852;-62
2022/04/21 09:56:34;;;;;;;8.45;4.08;;;;;;;17.19;27.23;100682.44;1705294;84;25701;-61
2022/04/21 09:59:05;;;;;;;7.25;3.98;;;;;;;17.50;27.24;100673.34;1735216;81;27820;-62
2022/04/21 10:01:36;;;;;;;9.95;4.45;;;;;;;17.82;26.08;100680.01;1754006;81;25770;-61
2022/04/21 10:04:06;;;;;;;6.03;4.12;;;;;;;18.16;27.01;100678.63;1754276;81;25774;-61
2022/04/21 10:06:36;;;;;;;8.33;4.30;;;;;;;18.38;24.55;100678.19;1753013;81;25803;-61
2022/04/21 10:09:05;;;;;;;6.72;4.37;;;;;;;18.47;24.57;100681.63;1754247;81;25875;-61
2022/04/21 10:11:31;;;;;;;9.38;4.97;;;;;;;18.58;25.13;100672.97;1724498;81;27473;-61
2022/04/21 10:13:58;;;;;;;11.63;5.03;;;;;;;18.56;25.26;100677.76;1724099;82;27306;-61
2022/04/21 10:16:32;;;;;;;8.68;4.87;;;;;;;18.63;24.26;100676.48;1724184;82;25800;-61
2022/04/21 10:18:59;;;;;;;6.42;3.83;;;;;;;18.92;25.17;100663.80;1688328;84;26041;-61
2022/04/21 10:21:42;;;;;;;10.10;3.58;;;;;;;19.24;25.78;100665.20;1689381;84;25760;-61
2022/04/21 10:24:10;;;;;;;14.33;4.58;;;;;;;19.31;24.68;100668.49;1663684;85;27719;-61
2022/04/21 10:26:41;;;;;;;8.35;4.25;;;;;;;18.87;24.67;100663.55;1700598;83;25468;-62
2022/04/21 10:29:17;;;;;;;5.87;4.20;;;;;;;18.69;26.04;100663.98;1700807;83;25714;-61
2022/04/21 10:32:06;;;;;;;9.30;4.08;;;;;;;18.40;25.40;100666.59;1700542;83;27942;-61
2022/04/21 10:34:45;;;;;;;9.03;3.50;;;;;;;18.09;25.46;100664.92;1719097;83;25962;-62
2022/04/21 10:37:18;;;;;;;5.95;3.45;;;;;;;17.91;24.91;100670.72;1718693;82;28180;-62
2022/04/21 10:40:09;;;;;;;6.60;3.15;;;;;;;17.83;25.36;100670.28;1718770;83;25859;-62
2022/04/21 10:43:03;;;;;;;6.47;3.17;;;;;;;17.78;25.41;100670.02;1718783;82;25773;-62
2022/04/21 10:45:32;;;;;;;9.10;3.58;;;;;;;17.88;26.03;100665.64;1718120;82;25854;-63
2022/04/21 10:48:08;;;;;;;6.97;4.40;;;;;;;18.13;25.50;100672.19;1718900;83;25788;-62
2022/04/21 10:50:45;;;;;;;8.78;3.40;;;;;;;18.37;25.70;100668.32;1695916;83;27598;-62
2022/04/21 10:59:05;;;;;;;7.05;2.98;;;;;;;19.07;24.35;100663.25;1651084;85;25844;-61
2022/04/21 11:01:33;;;;;;;8.20;3.10;;;;;;;19.24;25.07;100658.88;1664857;85;25794;-61
2022/04/21 11:04:14;;;;;;;4.65;3.05;;;;;;;19.28;24.53;100664.78;1724700;82;27478;-61
2022/04/21 11:06:46;;;;;;;4.03;3.25;;;;;;;19.33;24.98;100664.52;1720629;82;25815;-62
2022/04/21 11:09:50;;;;;;;7.58;3.08;;;;;;;19.41;24.74;100656.73;1724714;81;25468;-62
2022/04/21 11:12:39;;;;;;;4.55;3.20;;;;;;;19.38;24.86;100655.25;1724353;83;27904;-60
2022/04/21 11:15:39;;;;;;;4.60;2.85;;;;;;;19.28;24.22;100653.87;1724382;82;25477;-61
2022/04/21 11:18:30;;;;;;;10.93;3.37;;;;;;;19.07;24.30;100652.88;1724958;82;27423;-61
2022/04/21 11:21:26;;;;;;;4.25;2.92;;;;;;;18.83;24.02;100653.53;1724549;83;25694;-61
2022/04/21 11:23:59;;;;;;;4.80;3.42;;;;;;;18.54;23.56;100651.25;1736438;82;25812;-61
2022/04/21 11:26:31;;;;;;;9.55;3.40;;;;;;;18.17;23.39;100653.09;1739050;82;25838;-61
2022/04/21 11:29:03;;;;;;;5.78;3.67;;;;;;;17.86;23.97;100647.30;1739433;82;25979;-61
2022/04/21 11:31:33;;;;;;;6.08;3.67;;;;;;;17.64;24.12;100660.80;1739708;82;28126;-61
2022/04/21 11:34:04;;;;;;;11.43;3.85;;;;;;;17.38;24.28;100648.14;1739533;82;25752;-61
2022/04/21 11:36:36;;;;;;;9.18;4.12;;;;;;;17.16;24.83;100650.20;1739663;82;25751;-62
2022/04/21 11:39:08;;;;;;;4.37;3.33;;;;;;;17.12;25.57;100643.95;1739588;82;25732;-61
2022/04/21 11:41:44;;;;;;;;;;;;;;;17.20;25.83;100636.56;1742241;82;25770;-61
2022/04/21 11:44:14;;;;;;;6.22;3.72;;;;;;;17.38;25.47;100633.19;1739434;82;27523;-62
2022/04/21 11:46:41;;;;;;;9.45;3.62;;;;;;;17.57;24.88;100645.41;1718336;82;25596;-62
2022/04/21 11:49:09;;;;;;;6.40;3.42;;;;;;;17.70;24.79;100644.75;1736740;81;25519;-61
2022/04/21 11:51:38;;;;;;;10.50;3.62;;;;;;;17.93;24.49;100632.42;1718336;81;26179;-62
2022/04/21 11:54:07;;;;;;;6.55;3.65;;;;;;;17.99;24.60;100624.39;1711395;82;25785;-63
2022/04/21 11:56:36;;;;;;;14.90;3.70;;;;;;;18.26;24.59;100620.65;1677055;85;27431;-62
2022/04/21 11:59:09;;;;;;;7.90;4.05;;;;;;;18.77;23.95;100625.70;1710138;82;25709;-61
2022/04/21 12:07:17;;;;;;;10.35;3.85;;;;;;;18.90;22.96;100620.91;1718237;82;25460;-61
2022/04/21 12:09:50;;;;;;;12.10;3.85;;;;;;;18.58;23.43;100617.13;1730919;82;28543;-61
2022/04/21 12:12:21;;;;;;;7.05;3.40;;;;;;;18.35;23.86;100609.11;1698626;82;25677;-62
2022/04/21 12:14:47;;;;;;;7.15;3.65;;;;;;;18.22;23.93;100610.33;1689401;84;25722;-61
2022/04/21 12:17:17;;;;;;;9.45;3.50;;;;;;;18.08;24.33;100608.78;1689334;84;25837;-61
2022/04/21 12:19:46;;;;;;;6.92;3.30;;;;;;;18.00;23.49;100618.42;1689556;84;25464;-61
2022/04/21 12:22:21;;;;;;;4.60;2.75;;;;;;;17.81;24.04;100600.77;1689584;84;27439;-62
2022/04/21 12:24:54;;;;;;;9.45;3.42;;;;;;;17.79;24.25;100602.33;1700068;84;25764;-61